SRG weather

Achmad Yani Airport
Semarang-Java Island, Jawa Tengah, Indonesia

Public forecast

Using degrees Celsius for public forecast. Weather courtesy of forecast.io.

METAR (pilot weather report)

Retrieved 2019/03/26 14:30 UTC (7 minutes ago):

WAHS 261430Z 15003KT 6000 SCT014 27/24 Q1013 NOSIG

TAF (pilot weather forecast)

Retrieved UTC (0 seconds ago):